Time;durP1;ratioP1;P1;durP2;ratioP2;P2;SDS_P1;SDS_P2;PMS_P1;PMS_P2;Temp;Humidity;BMP_temperature;BMP_pressure;BME280_temperature;BME280_humidity;BME280_pressure;Samples;Min_cycle;Max_cycle;Signal;HPM_P1;HPM_P2
2023/05/22 00:00:06;;;;;;;;;;;17.60;99.90;;;;;;5096921;28;19932;-80
2023/05/22 00:02:37;;;;;;;;;;;17.60;99.90;;;;;;5046126;28;19943;-80
2023/05/22 00:05:06;;;;;;;;;;;17.60;99.90;;;;;;5079635;28;20379;-79
2023/05/22 00:07:31;;;;;;;;;;;17.50;99.90;;;;;;5092155;28;19932;-79
2023/05/22 00:09:57;;;;;;;;;;;17.50;99.90;;;;;;5046030;28;19931;-78
2023/05/22 00:12:23;;;;;;;;;;;17.50;99.90;;;;;;5093586;28;19928;-78
2023/05/22 00:14:48;;;;;;;;;;;17.50;99.90;;;;;;5059120;28;19924;-78
2023/05/22 00:17:15;;;;;;;;;;;17.50;99.90;;;;;;5060384;28;20395;-79
2023/05/22 00:19:41;;;;;;;;;;;17.50;99.90;;;;;;5075555;28;19928;-79
2023/05/22 00:22:07;;;;;;;;;;;17.50;99.90;;;;;;5093992;28;19928;-79
2023/05/22 00:24:33;;;;;;;;;;;17.40;99.90;;;;;;5108180;28;19924;-79
2023/05/22 00:26:58;;;;;;;;;;;17.40;99.90;;;;;;5078100;28;19939;-79
2023/05/22 00:29:24;;;;;;;;;;;17.40;99.90;;;;;;5075489;28;19924;-79
2023/05/22 00:31:50;;;;;;;;;;;17.30;99.90;;;;;;5091980;28;20030;-79
2023/05/22 00:34:15;;;;;;;;;;;17.30;99.90;;;;;;5094674;28;19928;-79
2023/05/22 00:36:41;;;;;;;;;;;17.30;99.90;;;;;;5076131;28;19980;-78
2023/05/22 00:39:06;;;;;;;;;;;17.30;99.90;;;;;;5075649;28;19928;-78
2023/05/22 00:41:35;;;;;;;;;;;17.20;99.90;;;;;;5077484;28;19951;-78
2023/05/22 00:44:01;;;;;;;;;;;17.20;99.90;;;;;;5060647;28;19932;-78
2023/05/22 00:46:27;;;;;;;;;;;17.20;99.90;;;;;;5109011;28;19998;-77
2023/05/22 00:48:53;;;;;;;;;;;17.20;99.90;;;;;;5057678;28;19928;-78
2023/05/22 00:51:23;;;;;;;;;;;17.10;99.90;;;;;;5079600;28;19971;-78
2023/05/22 00:53:49;;;;;;;;;;;17.10;99.90;;;;;;5095088;28;19935;-79
2023/05/22 00:56:15;;;;;;;;;;;17.10;99.90;;;;;;5094371;28;19955;-79
2023/05/22 00:58:40;;;;;;;;;;;17.00;99.90;;;;;;5093789;28;19924;-79
2023/05/22 01:01:08;;;;;;;;;;;17.00;99.90;;;;;;5078280;28;19924;-80
2023/05/22 01:03:36;;;;;;;;;;;16.90;99.90;;;;;;5096128;28;19924;-80
2023/05/22 01:06:02;;;;;;;;;;;16.90;99.90;;;;;;5077234;28;19988;-80
2023/05/22 01:08:27;;;;;;;;;;;16.80;99.90;;;;;;5097104;28;19924;-80
2023/05/22 01:11:01;;;;;;;;;;;16.80;99.90;;;;;;5090785;28;19924;-80
2023/05/22 01:13:47;;;;;;;;;;;16.80;99.90;;;;;;5059872;28;20370;-80
2023/05/22 01:16:31;;;;;;;;;;;16.80;99.90;;;;;;5076013;28;20485;-80
2023/05/22 01:18:56;;;;;;;;;;;16.80;99.90;;;;;;5090051;28;19928;-80
2023/05/22 01:21:44;;;;;;;;;;;16.70;99.90;;;;;;5093164;28;19979;-79
2023/05/22 01:24:24;;;;;;;;;;;16.70;99.90;;;;;;5108468;28;20050;-80
2023/05/22 01:27:04;;;;;;;;;;;16.70;99.90;;;;;;5079039;28;19930;-80
2023/05/22 01:29:40;;;;;;;;;;;16.70;99.90;;;;;;5077918;28;19924;-80
2023/05/22 01:32:07;;;;;;;;;;;16.70;99.90;;;;;;5072003;28;19924;-80
2023/05/22 01:34:35;;;;;;;;;;;16.70;99.90;;;;;;5094980;28;19939;-80
2023/05/22 01:37:01;;;;;;;;;;;16.70;99.90;;;;;;5060643;28;19987;-80
2023/05/22 01:39:27;;;;;;;;;;;16.70;99.90;;;;;;5077234;28;19935;-80
2023/05/22 01:41:53;;;;;;;;;;;16.70;99.90;;;;;;5078346;28;19928;-79
2023/05/22 01:44:18;;;;;;;;;;;16.80;99.90;;;;;;5110233;28;19987;-80
2023/05/22 01:46:44;;;;;;;;;;;16.70;99.90;;;;;;5112148;28;19954;-80
2023/05/22 01:49:09;;;;;;;;;;;16.70;99.90;;;;;;5092444;28;20020;-80
2023/05/22 01:51:35;;;;;;;;;;;16.70;99.90;;;;;;5094772;28;19974;-79
2023/05/22 01:54:16;;;;;;;;;;;16.70;99.90;;;;;;5092998;28;19924;-80
2023/05/22 01:56:47;;;;;;;;;;;16.70;99.90;;;;;;5110618;28;19928;-80
2023/05/22 01:59:19;;;;;;;;;;;16.70;99.90;;;;;;5092530;28;20015;-80
2023/05/22 02:01:47;;;;;;;;;;;16.70;99.90;;;;;;5074049;28;19932;-80
2023/05/22 02:04:13;;;;;;;;;;;16.70;99.90;;;;;;5059443;28;19928;-80
2023/05/22 02:06:40;;;;;;;;;;;16.70;99.90;;;;;;5072891;28;20033;-80
2023/05/22 02:09:05;;;;;;;;;;;16.60;99.90;;;;;;5091253;28;19964;-80
2023/05/22 02:11:32;;;;;;;;;;;16.70;99.90;;;;;;5055152;28;19928;-80
2023/05/22 02:13:58;;;;;;;;;;;16.60;99.90;;;;;;5056533;28;19983;-81
2023/05/22 02:16:24;;;;;;;;;;;16.60;99.90;;;;;;5074104;28;20021;-80
2023/05/22 02:18:50;;;;;;;;;;;16.60;99.90;;;;;;5091698;28;19945;-81
2023/05/22 02:21:15;;;;;;;;;;;16.60;99.90;;;;;;5074376;28;19933;-81
2023/05/22 02:23:41;;;;;;;;;;;16.60;99.90;;;;;;5039995;28;19984;-81
2023/05/22 02:26:06;;;;;;;;;;;16.60;99.90;;;;;;5042271;28;19924;-81
2023/05/22 02:28:32;;;;;;;;;;;16.60;99.90;;;;;;5056657;28;19936;-81
2023/05/22 02:30:58;;;;;;;;;;;16.70;99.90;;;;;;5057744;28;20025;-81
2023/05/22 02:33:23;;;;;;;;;;;16.50;99.90;;;;;;5110479;28;20001;-80
2023/05/22 02:35:49;;;;;;;;;;;16.60;99.90;;;;;;5043146;28;19931;-80
2023/05/22 02:38:14;;;;;;;;;;;16.50;99.90;;;;;;5096676;28;19928;-80
2023/05/22 02:40:40;;;;;;;;;;;16.50;99.90;;;;;;5061101;28;19924;-81
2023/05/22 02:43:05;;;;;;;;;;;16.50;99.90;;;;;;5061564;28;19923;-82
2023/05/22 02:45:31;;;;;;;;;;;16.50;99.90;;;;;;5041237;28;20282;-80
2023/05/22 02:47:58;;;;;;;;;;;16.50;99.90;;;;;;5077795;28;21768;-81
2023/05/22 02:50:24;;;;;;;;;;;16.50;99.90;;;;;;5079498;28;20025;-80
2023/05/22 02:52:50;;;;;;;;;;;16.50;99.90;;;;;;5079210;28;19928;-80
2023/05/22 02:55:16;;;;;;;;;;;16.50;99.90;;;;;;5080048;28;20340;-80
2023/05/22 02:57:41;;;;;;;;;;;16.50;99.90;;;;;;5096660;28;19932;-80
2023/05/22 03:00:10;;;;;;;;;;;16.50;99.90;;;;;;5070274;28;19931;-80
2023/05/22 03:02:36;;;;;;;;;;;16.40;99.90;;;;;;5088057;28;19924;-80
2023/05/22 03:05:02;;;;;;;;;;;16.40;99.90;;;;;;5067613;28;19928;-80
2023/05/22 03:07:28;;;;;;;;;;;16.50;99.90;;;;;;5051013;28;19928;-80
2023/05/22 03:09:54;;;;;;;;;;;16.40;99.90;;;;;;5113613;28;19932;-80
2023/05/22 03:12:19;;;;;;;;;;;16.40;99.90;;;;;;5067194;28;19930;-80
2023/05/22 03:14:45;;;;;;;;;;;16.40;99.90;;;;;;5080394;28;19987;-80
2023/05/22 03:17:11;;;;;;;;;;;16.40;99.90;;;;;;5101183;28;19924;-80
2023/05/22 03:19:36;;;;;;;;;;;16.40;99.90;;;;;;5052811;28;19967;-80
2023/05/22 03:22:02;;;;;;;;;;;16.50;99.90;;;;;;5100436;28;19939;-79
2023/05/22 03:24:28;;;;;;;;;;;16.40;99.90;;;;;;5082496;28;19924;-80
2023/05/22 03:26:53;;;;;;;;;;;16.50;99.90;;;;;;5079807;28;19987;-80
2023/05/22 03:29:19;;;;;;;;;;;16.50;99.90;;;;;;5090592;28;19931;-80
2023/05/22 03:31:45;;;;;;;;;;;16.40;99.90;;;;;;5067503;28;19923;-80
2023/05/22 03:34:10;;;;;;;;;;;16.50;99.90;;;;;;5101184;28;19935;-80
2023/05/22 03:36:36;;;;;;;;;;;16.50;99.90;;;;;;5106262;28;19924;-81
2023/05/22 03:39:02;;;;;;;;;;;16.40;99.90;;;;;;5074087;28;19936;-80
2023/05/22 03:41:28;;;;;;;;;;;16.40;99.90;;;;;;5085572;28;19929;-80
2023/05/22 03:43:53;;;;;;;;;;;16.40;99.90;;;;;;5112544;28;19923;-80
2023/05/22 03:46:19;;;;;;;;;;;16.40;99.90;;;;;;5081615;28;19946;-81
2023/05/22 03:48:45;;;;;;;;;;;16.50;99.90;;;;;;5075587;28;19930;-80
2023/05/22 03:51:10;;;;;;;;;;;16.40;99.90;;;;;;5067405;28;19929;-81
2023/05/22 03:53:36;;;;;;;;;;;16.40;99.90;;;;;;5077983;28;19949;-81
2023/05/22 03:56:01;;;;;;;;;;;16.40;99.90;;;;;;5063096;28;19924;-81
2023/05/22 03:58:27;;;;;;;;;;;16.40;99.90;;;;;;5083022;28;19935;-82
2023/05/22 04:00:53;;;;;;;;;;;16.40;99.90;;;;;;5065703;28;19980;-81
2023/05/22 04:03:19;;;;;;;;;;;16.50;99.90;;;;;;5069457;28;19924;-81
2023/05/22 04:05:45;;;;;;;;;;;16.50;99.90;;;;;;5080891;28;20693;-81
2023/05/22 04:08:10;;;;;;;;;;;16.50;99.90;;;;;;5048056;28;19977;-81
2023/05/22 04:10:37;;;;;;;;;;;16.50;99.90;;;;;;5063953;28;19927;-81
2023/05/22 04:13:05;;;;;;;;;;;16.50;99.90;;;;;;5049736;28;19928;-80
2023/05/22 04:15:35;;;;;;;;;;;16.50;99.90;;;;;;5048103;28;19923;-81
2023/05/22 04:18:00;;;;;;;;;;;16.50;99.90;;;;;;5050026;28;19932;-80
2023/05/22 04:20:26;;;;;;;;;;;16.50;99.90;;;;;;5043618;28;19939;-80
2023/05/22 04:22:53;;;;;;;;;;;16.50;99.90;;;;;;5078971;28;19928;-81
2023/05/22 04:25:19;;;;;;;;;;;16.50;99.90;;;;;;5084782;28;19923;-81
2023/05/22 04:27:46;;;;;;;;;;;16.60;99.90;;;;;;5096487;28;19924;-81
2023/05/22 04:30:13;;;;;;;;;;;16.60;99.90;;;;;;5064365;28;20307;-81
2023/05/22 04:32:39;;;;;;;;;;;16.60;99.90;;;;;;5070194;28;19924;-80
2023/05/22 04:35:05;;;;;;;;;;;16.60;99.90;;;;;;5098714;28;19924;-81
2023/05/22 04:37:30;;;;;;;;;;;16.70;99.90;;;;;;5079312;28;19931;-81
2023/05/22 04:40:01;;;;;;;;;;;16.60;99.90;;;;;;5069289;28;19932;-80
2023/05/22 04:42:27;;;;;;;;;;;16.60;99.90;;;;;;5094980;28;19982;-81
2023/05/22 04:44:53;;;;;;;;;;;16.70;99.90;;;;;;5064631;28;19928;-80
2023/05/22 04:47:18;;;;;;;;;;;16.70;99.90;;;;;;5079123;28;19970;-80
2023/05/22 04:49:44;;;;;;;;;;;16.70;99.90;;;;;;5079490;28;19931;-80
2023/05/22 04:52:10;;;;;;;;;;;16.70;99.90;;;;;;5095193;28;20279;-81
2023/05/22 04:54:37;;;;;;;;;;;16.70;99.90;;;;;;5078282;28;19924;-80
2023/05/22 04:57:03;;;;;;;;;;;16.70;99.90;;;;;;5093307;28;20372;-80
2023/05/22 04:59:30;;;;;;;;;;;16.80;99.90;;;;;;5077968;28;19928;-80
2023/05/22 05:01:56;;;;;;;;;;;16.70;99.90;;;;;;5108632;28;19967;-80
2023/05/22 05:04:21;;;;;;;;;;;16.70;99.90;;;;;;5078950;28;19928;-80
2023/05/22 05:06:47;;;;;;;;;;;16.80;99.90;;;;;;5075049;28;19969;-80
2023/05/22 05:09:12;;;;;;;;;;;16.80;99.90;;;;;;5077968;28;19928;-80
2023/05/22 05:11:38;;;;;;;;;;;16.80;99.90;;;;;;5111047;28;19939;-80
2023/05/22 05:14:03;;;;;;;;;;;16.70;99.90;;;;;;5093351;28;20390;-80
2023/05/22 05:16:29;;;;;;;;;;;16.80;99.90;;;;;;5090427;28;19973;-79
2023/05/22 05:18:55;;;;;;;;;;;16.80;99.90;;;;;;5046125;28;20387;-80
2023/05/22 05:21:20;;;;;;;;;;;16.70;99.90;;;;;;5098802;28;19987;-80
2023/05/22 05:23:46;;;;;;;;;;;16.70;99.90;;;;;;5063755;28;19997;-80
2023/05/22 05:26:12;;;;;;;;;;;16.80;99.90;;;;;;5064592;28;19924;-80
2023/05/22 05:28:38;;;;;;;;;;;16.80;99.90;;;;;;5081698;28;19924;-79
2023/05/22 05:31:03;;;;;;;;;;;16.80;99.90;;;;;;5098510;28;19975;-79
2023/05/22 05:33:29;;;;;;;;;;;16.80;99.90;;;;;;5109527;28;19924;-79
2023/05/22 05:35:55;;;;;;;;;;;16.80;99.90;;;;;;5067614;28;20026;-79
2023/05/22 05:38:21;;;;;;;;;;;16.80;99.90;;;;;;5122027;27;19924;-79
2023/05/22 05:40:47;;;;;;;;;;;16.80;99.90;;;;;;5094740;28;19924;-79
2023/05/22 05:43:15;;;;;;;;;;;16.80;99.90;;;;;;5088615;28;20026;-79
2023/05/22 05:45:42;;;;;;;;;;;16.80;99.90;;;;;;5072179;28;19925;-79
2023/05/22 05:48:08;;;;;;;;;;;16.80;99.90;;;;;;5096558;28;19928;-79
2023/05/22 05:50:33;;;;;;;;;;;16.90;99.90;;;;;;5081227;28;19935;-78
2023/05/22 05:53:00;;;;;;;;;;;16.90;99.90;;;;;;5113867;27;19935;-79
2023/05/22 05:55:25;;;;;;;;;;;16.90;99.90;;;;;;5084895;28;19935;-79
2023/05/22 05:57:51;;;;;;;;;;;17.00;99.90;;;;;;5109369;27;19928;-79
2023/05/22 06:00:17;;;;;;;;;;;17.00;99.90;;;;;;5075767;28;20470;-79
2023/05/22 06:02:44;;;;;;;;;;;17.00;99.90;;;;;;5072717;28;19932;-78
2023/05/22 06:05:10;;;;;;;;;;;17.10;99.90;;;;;;5105528;28;20020;-79
2023/05/22 06:07:38;;;;;;;;;;;17.00;99.90;;;;;;5109591;28;20665;-78
2023/05/22 06:10:04;;;;;;;;;;;17.00;99.90;;;;;;5090553;28;19928;-79
2023/05/22 06:12:30;;;;;;;;;;;17.10;99.90;;;;;;5073988;28;19966;-79
2023/05/22 06:14:56;;;;;;;;;;;17.00;99.90;;;;;;5079201;28;19924;-79
2023/05/22 06:17:21;;;;;;;;;;;17.10;99.90;;;;;;5049939;28;20410;-79
2023/05/22 06:19:47;;;;;;;;;;;17.00;99.90;;;;;;5061085;28;19924;-79
2023/05/22 06:22:13;;;;;;;;;;;17.10;99.90;;;;;;5044317;28;19968;-78
2023/05/22 06:24:38;;;;;;;;;;;17.10;99.90;;;;;;5077937;28;20025;-78
2023/05/22 06:27:04;;;;;;;;;;;17.10;99.90;;;;;;5083991;28;19989;-79
2023/05/22 06:29:30;;;;;;;;;;;17.20;99.90;;;;;;5076117;28;19928;-77
2023/05/22 06:31:55;;;;;;;;;;;17.20;99.90;;;;;;5089989;28;19969;-78
2023/05/22 06:34:21;;;;;;;;;;;17.30;99.90;;;;;;5080914;28;19934;-78
2023/05/22 06:36:49;;;;;;;;;;;17.30;99.90;;;;;;5113723;28;19924;-78
2023/05/22 06:39:15;;;;;;;;;;;17.30;99.90;;;;;;5111470;28;19924;-78
2023/05/22 06:41:41;;;;;;;;;;;17.40;99.90;;;;;;5075357;28;19938;-78
2023/05/22 06:44:07;;;;;;;;;;;17.40;99.90;;;;;;5039822;28;19928;-78
2023/05/22 06:46:32;;;;;;;;;;;17.50;99.90;;;;;;5095417;28;19967;-78
2023/05/22 06:48:58;;;;;;;;;;;17.60;99.90;;;;;;5092588;28;20015;-78
2023/05/22 06:51:23;;;;;;;;;;;17.60;99.90;;;;;;5074329;28;19924;-78
2023/05/22 06:53:49;;;;;;;;;;;17.60;99.90;;;;;;5091847;28;19990;-77
2023/05/22 06:56:15;;;;;;;;;;;17.70;99.90;;;;;;5043251;28;19950;-78
2023/05/22 06:58:40;;;;;;;;;;;17.70;99.90;;;;;;5075592;28;19928;-78
2023/05/22 07:01:06;;;;;;;;;;;17.70;99.90;;;;;;5091717;28;19946;-79
2023/05/22 07:03:32;;;;;;;;;;;17.70;99.90;;;;;;5075537;28;20018;-78
2023/05/22 07:05:58;;;;;;;;;;;17.70;99.90;;;;;;5064861;28;19932;-78
2023/05/22 07:08:24;;;;;;;;;;;17.60;99.90;;;;;;5099020;28;19931;-78
2023/05/22 07:10:50;;;;;;;;;;;17.60;99.90;;;;;;5090330;28;20379;-78
2023/05/22 07:13:16;;;;;;;;;;;17.50;99.90;;;;;;5092305;28;19931;-78
2023/05/22 07:15:42;;;;;;;;;;;17.60;99.90;;;;;;5084839;28;19929;-77
2023/05/22 07:18:09;;;;;;;;;;;17.50;99.90;;;;;;5079423;28;19924;-77
2023/05/22 07:20:34;;;;;;;;;;;17.50;99.90;;;;;;5111044;28;20462;-73
2023/05/22 07:23:00;;;;;;;;;;;17.40;99.90;;;;;;5075834;28;19924;-74
2023/05/22 07:25:25;;;;;;;;;;;17.40;99.90;;;;;;5065238;28;19945;-74
2023/05/22 07:27:51;;;;;;;;;;;17.40;99.90;;;;;;5081374;28;19943;-74
2023/05/22 07:30:17;;;;;;;;;;;17.40;99.90;;;;;;5091036;28;19930;-74
2023/05/22 07:32:42;;;;;;;;;;;17.40;99.90;;;;;;5107629;28;19964;-74
2023/05/22 07:35:09;;;;;;;;;;;17.40;99.90;;;;;;5106628;28;19931;-75
2023/05/22 07:37:36;;;;;;;;;;;17.40;99.90;;;;;;5097526;28;19924;-73
2023/05/22 07:40:04;;;;;;;;;;;17.40;99.90;;;;;;5073062;28;19931;-77
2023/05/22 07:42:30;;;;;;;;;;;17.30;99.90;;;;;;5069148;28;20413;-77
2023/05/22 07:44:55;;;;;;;;;;;17.30;99.90;;;;;;5057199;28;19925;-77
2023/05/22 07:47:21;;;;;;;;;;;17.30;99.90;;;;;;5072767;28;19995;-77
2023/05/22 07:49:46;;;;;;;;;;;17.30;99.90;;;;;;5131613;27;19924;-77
2023/05/22 07:52:12;;;;;;;;;;;17.30;99.90;;;;;;5077428;28;19966;-77
2023/05/22 07:54:38;;;;;;;;;;;17.30;99.90;;;;;;5083355;28;19953;-77
2023/05/22 07:57:03;;;;;;;;;;;17.30;99.90;;;;;;5070512;28;19924;-77
2023/05/22 07:59:29;;;;;;;;;;;17.30;99.90;;;;;;5077614;28;20062;-82
2023/05/22 08:01:55;;;;;;;;;;;17.30;99.90;;;;;;5072515;28;19967;-81
2023/05/22 08:04:21;;;;;;;;;;;17.30;99.90;;;;;;5055079;28;20404;-85
2023/05/22 08:06:47;;;;;;;;;;;17.30;99.90;;;;;;5047629;28;19929;-86
2023/05/22 08:09:12;;;;;;;;;;;17.30;99.90;;;;;;5047170;28;20492;-82
2023/05/22 08:11:40;;;;;;;;;;;17.40;99.90;;;;;;5072489;28;19947;-81
2023/05/22 08:14:06;;;;;;;;;;;17.40;99.90;;;;;;5073327;28;19929;-80
2023/05/22 08:16:32;;;;;;;;;;;17.40;99.90;;;;;;5074190;28;19951;-81
2023/05/22 08:18:57;;;;;;;;;;;17.50;99.90;;;;;;5088963;28;20307;-81
2023/05/22 08:21:23;;;;;;;;;;;17.60;99.90;;;;;;5078324;28;19936;-81
2023/05/22 08:23:48;;;;;;;;;;;17.60;99.90;;;;;;5080684;28;19925;-76
2023/05/22 08:26:14;;;;;;;;;;;17.70;99.90;;;;;;5074882;28;19940;-79
2023/05/22 08:28:43;;;;;;;;;;;17.80;99.90;;;;;;5087300;28;19935;-78
2023/05/22 08:31:11;;;;;;;;;;;17.80;99.90;;;;;;5091733;28;19947;-78
2023/05/22 08:33:38;;;;;;;;;;;17.90;99.90;;;;;;5099740;28;19924;-81
2023/05/22 08:36:04;;;;;;;;;;;17.90;99.90;;;;;;5046282;28;19925;-80
2023/05/22 08:38:30;;;;;;;;;;;18.00;99.90;;;;;;5043570;28;19925;-80
2023/05/22 08:40:56;;;;;;;;;;;18.00;99.90;;;;;;5077441;28;19931;-81
2023/05/22 08:43:22;;;;;;;;;;;18.20;99.90;;;;;;5063425;28;20443;-83
2023/05/22 08:45:51;;;;;;;;;;;18.20;99.90;;;;;;5075528;28;19939;-82
2023/05/22 08:48:18;;;;;;;;;;;18.30;99.90;;;;;;5075274;28;19924;-83
2023/05/22 08:50:45;;;;;;;;;;;18.30;99.90;;;;;;5058247;28;19928;-74
2023/05/22 08:53:14;;;;;;;;;;;18.50;99.90;;;;;;5063819;28;19987;-74
2023/05/22 08:55:39;;;;;;;;;;;18.60;99.90;;;;;;5073333;28;19924;-75
2023/05/22 08:58:05;;;;;;;;;;;18.80;99.90;;;;;;5071231;28;19929;-74
2023/05/22 09:00:32;;;;;;;;;;;19.00;99.90;;;;;;5100432;28;20214;-76
2023/05/22 09:02:58;;;;;;;;;;;19.30;99.90;;;;;;5087439;28;19929;-76
2023/05/22 09:05:27;;;;;;;;;;;19.50;99.90;;;;;;5096248;28;19924;-77
2023/05/22 09:07:56;;;;;;;;;;;19.80;99.90;;;;;;5059351;28;19932;-77
2023/05/22 09:10:21;;;;;;;;;;;20.20;99.90;;;;;;5078672;28;19927;-76
2023/05/22 09:12:58;;;;;;;;;;;20.60;99.90;;;;;;5078219;28;19931;-78
2023/05/22 09:15:28;;;;;;;;;;;20.70;99.90;;;;;;5087842;28;19932;-77
2023/05/22 09:17:53;;;;;;;;;;;20.70;99.90;;;;;;5059276;28;19943;-72
2023/05/22 09:20:19;;;;;;;;;;;20.80;99.90;;;;;;5066723;28;19929;-72
2023/05/22 09:22:46;;;;;;;;;;;20.90;99.90;;;;;;5074854;28;19924;-73
2023/05/22 09:25:16;;;;;;;;;;;21.10;99.90;;;;;;5078552;28;19924;-74
2023/05/22 09:27:43;;;;;;;;;;;21.40;99.90;;;;;;5080797;28;20499;-75
2023/05/22 09:30:09;;;;;;;;;;;21.60;99.90;;;;;;5072010;28;19931;-75
2023/05/22 09:32:35;;;;;;;;;;;21.70;99.90;;;;;;5074174;28;19924;-75
2023/05/22 09:35:02;;;;;;;;;;;21.90;99.90;;;;;;5060934;28;19941;-74
2023/05/22 09:37:31;;;;;;;;;;;22.10;99.90;;;;;;5046286;28;19970;-76
2023/05/22 09:39:57;;;;;;;;;;;22.30;99.90;;;;;;5078192;28;19975;-77
2023/05/22 09:42:23;;;;;;;;;;;22.40;99.90;;;;;;5061787;28;19933;-70
2023/05/22 09:44:50;;;;;;;;;;;22.60;99.90;;;;;;5072083;28;19925;-70
2023/05/22 09:47:16;;;;;;;;;;;22.90;99.90;;;;;;5073975;28;19928;-69
2023/05/22 09:49:42;;;;;;;;;;;23.10;99.90;;;;;;5090154;28;19931;-71
2023/05/22 09:52:08;;;;;;;;;;;23.20;99.90;;;;;;5073417;28;19924;-75
2023/05/22 09:54:34;;;;;;;;;;;23.20;99.90;;;;;;5087442;28;19924;-70
2023/05/22 09:57:02;;;;;;;;;;;23.30;99.90;;;;;;5107314;27;19929;-74
2023/05/22 09:59:30;;;;;;;;;;;23.50;99.90;;;;;;5070158;28;19924;-73
2023/05/22 10:01:56;;;;;;;;;;;23.80;99.90;;;;;;5070555;28;19924;-73
2023/05/22 10:04:22;;;;;;;;;;;24.00;99.90;;;;;;5073256;28;20574;-73
2023/05/22 10:06:55;;;;;;;;;;;24.20;99.90;;;;;;5071460;28;19924;-74
2023/05/22 10:09:22;;;;;;;;;;;24.50;99.90;;;;;;5055787;28;19947;-76
2023/05/22 10:11:53;;;;;;;;;;;24.50;99.90;;;;;;5057747;28;19959;-76
2023/05/22 10:14:18;;;;;;;;;;;24.60;99.90;;;;;;5069139;28;19940;-69
2023/05/22 10:16:44;;;;;;;;;;;24.60;99.90;;;;;;5074424;28;19959;-69
2023/05/22 10:19:10;;;;;;;;;;;24.70;99.90;;;;;;5075071;28;19932;-70
2023/05/22 10:21:37;;;;;;;;;;;24.80;99.90;;;;;;5071574;28;19929;-70
2023/05/22 10:24:04;;;;;;;;;;;24.80;99.90;;;;;;5075704;28;19939;-69
2023/05/22 10:26:30;;;;;;;;;;;24.80;99.90;;;;;;5100661;27;20059;-70
2023/05/22 10:29:06;;;;;;;;;;;24.80;99.90;;;;;;5073616;28;20437;-72
2023/05/22 10:31:37;;;;;;;;;;;24.90;99.90;;;;;;5072538;28;19924;-78
2023/05/22 10:34:06;;;;;;;;;;;25.00;99.90;;;;;;5103768;28;19995;-76
2023/05/22 10:36:38;;;;;;;;;;;25.10;99.90;;;;;;5075392;28;19932;-75
2023/05/22 10:39:15;;;;;;;;;;;25.00;99.90;;;;;;5086119;28;19955;-76
2023/05/22 10:41:41;;;;;;;;;;;25.00;99.90;;;;;;5061279;28;20011;-77
2023/05/22 10:44:07;;;;;;;;;;;25.00;99.90;;;;;;5074640;28;19971;-76
2023/05/22 10:46:35;;;;;;;;;;;24.90;99.90;;;;;;5111520;28;19930;-76
2023/05/22 10:49:01;;;;;;;;;;;24.90;99.90;;;;;;5078992;28;19925;-74
2023/05/22 10:51:26;;;;;;;;;;;24.80;99.90;;;;;;5106767;28;19928;-75
2023/05/22 10:53:56;;;;;;;;;;;24.90;99.90;;;;;;5072087;28;19996;-75
2023/05/22 10:56:22;;;;;;;;;;;25.00;99.90;;;;;;5072480;28;20015;-74
2023/05/22 10:58:55;;;;;;;;;;;25.20;99.90;;;;;;5070762;28;19960;-75
2023/05/22 11:01:23;;;;;;;;;;;25.30;99.90;;;;;;5076370;28;19934;-74
2023/05/22 11:03:59;;;;;;;;;;;25.40;99.90;;;;;;5074400;28;19956;-75
2023/05/22 11:06:28;;;;;;;;;;;25.40;99.90;;;;;;5071691;28;19938;-74
2023/05/22 11:08:54;;;;;;;;;;;25.40;99.90;;;;;;5067963;28;19983;-77
2023/05/22 11:11:23;;;;;;;;;;;25.50;99.90;;;;;;5071633;28;19985;-75
2023/05/22 11:14:04;;;;;;;;;;;25.50;99.90;;;;;;5087474;28;19925;-75
2023/05/22 11:16:30;;;;;;;;;;;25.60;99.90;;;;;;5076850;28;19949;-75
2023/05/22 11:19:01;;;;;;;;;;;25.60;99.90;;;;;;5060774;28;19932;-75
2023/05/22 11:21:28;;;;;;;;;;;25.70;99.90;;;;;;5072299;28;19927;-74
2023/05/22 11:23:53;;;;;;;;;;;25.80;99.90;;;;;;5064197;28;19929;-75
2023/05/22 11:26:21;;;;;;;;;;;25.80;99.90;;;;;;5047242;28;19963;-75
2023/05/22 11:28:50;;;;;;;;;;;25.80;99.90;;;;;;5073844;28;19924;-74
2023/05/22 11:31:17;;;;;;;;;;;25.80;99.90;;;;;;5105012;28;19946;-75
2023/05/22 11:33:44;;;;;;;;;;;25.80;99.90;;;;;;5093528;28;19943;-76
2023/05/22 11:36:10;;;;;;;;;;;25.90;99.90;;;;;;5075714;28;19931;-75
2023/05/22 11:38:37;;;;;;;;;;;25.90;99.90;;;;;;5073152;28;19932;-75
2023/05/22 11:41:02;;;;;;;;;;;25.80;99.90;;;;;;5101238;28;19924;-79
2023/05/22 11:43:29;;;;;;;;;;;25.70;99.90;;;;;;5122468;27;19982;-79
2023/05/22 11:45:59;;;;;;;;;;;25.50;99.90;;;;;;5082948;28;19924;-79
2023/05/22 11:48:24;;;;;;;;;;;25.50;99.90;;;;;;5087583;28;19936;-79
2023/05/22 11:50:50;;;;;;;;;;;25.50;99.90;;;;;;5084438;28;19925;-79
2023/05/22 11:53:16;;;;;;;;;;;25.50;99.90;;;;;;5081096;28;19928;-78
2023/05/22 11:55:41;;;;;;;;;;;25.60;99.90;;;;;;5101326;28;19959;-79
2023/05/22 11:58:07;;;;;;;;;;;25.70;99.90;;;;;;5082566;28;19924;-79
2023/05/22 12:00:33;;;;;;;;;;;25.90;99.90;;;;;;5068969;28;19928;-79
2023/05/22 12:02:58;;;;;;;;;;;25.90;99.90;;;;;;5100412;28;19963;-78
2023/05/22 12:05:24;;;;;;;;;;;26.00;99.90;;;;;;5081374;28;19924;-79
2023/05/22 12:07:49;;;;;;;;;;;25.90;99.90;;;;;;5091929;28;20022;-79
2023/05/22 12:10:15;;;;;;;;;;;25.90;99.90;;;;;;5077220;28;20023;-79
2023/05/22 12:12:42;;;;;;;;;;;26.00;99.90;;;;;;5100772;28;19931;-79
2023/05/22 12:15:08;;;;;;;;;;;26.10;99.90;;;;;;5082736;28;19924;-78
2023/05/22 12:17:34;;;;;;;;;;;26.40;99.90;;;;;;5100307;28;20276;-80
2023/05/22 12:20:00;;;;;;;;;;;26.60;99.90;;;;;;5082901;28;19923;-79
2023/05/22 12:22:28;;;;;;;;;;;26.50;99.90;;;;;;5099958;28;20424;-79
2023/05/22 12:24:54;;;;;;;;;;;26.60;99.90;;;;;;5100470;28;19969;-79
2023/05/22 12:27:20;;;;;;;;;;;26.60;98.60;;;;;;5132854;27;19927;-78
2023/05/22 12:29:45;;;;;;;;;;;26.60;99.90;;;;;;5083337;28;19928;-80
2023/05/22 12:32:11;;;;;;;;;;;26.70;99.40;;;;;;5099040;28;20394;-79
2023/05/22 12:34:46;;;;;;;;;;;26.80;99.40;;;;;;5100145;28;19924;-79
2023/05/22 12:37:16;;;;;;;;;;;26.70;96.50;;;;;;5099370;28;19924;-79
2023/05/22 12:39:51;;;;;;;;;;;26.80;98.60;;;;;;5085038;28;19924;-80
2023/05/22 12:42:17;;;;;;;;;;;26.80;97.50;;;;;;5070807;28;19925;-79
2023/05/22 12:44:44;;;;;;;;;;;27.10;98.60;;;;;;5066442;28;19991;-79
2023/05/22 12:47:09;;;;;;;;;;;27.30;95.60;;;;;;5083234;28;19959;-79
2023/05/22 12:49:35;;;;;;;;;;;27.40;95.20;;;;;;5081867;28;19940;-79
2023/05/22 12:52:00;;;;;;;;;;;27.50;93.50;;;;;;5099548;28;20011;-79
2023/05/22 12:54:26;;;;;;;;;;;27.60;91.00;;;;;;5099127;28;20221;-79
2023/05/22 12:56:52;;;;;;;;;;;27.70;96.40;;;;;;5082390;28;19932;-80
2023/05/22 12:59:17;;;;;;;;;;;27.50;92.70;;;;;;5090942;28;20250;-80
2023/05/22 13:01:43;;;;;;;;;;;27.40;93.50;;;;;;5075982;28;20350;-80
2023/05/22 13:04:08;;;;;;;;;;;27.10;90.00;;;;;;5076380;28;19928;-79
2023/05/22 13:06:34;;;;;;;;;;;26.80;90.90;;;;;;5090733;28;19924;-80
2023/05/22 13:09:00;;;;;;;;;;;26.40;89.60;;;;;;5077392;28;19928;-80
2023/05/22 13:11:25;;;;;;;;;;;26.10;92.40;;;;;;5089186;28;19932;-80
2023/05/22 13:13:51;;;;;;;;;;;25.80;94.20;;;;;;5081963;28;19956;-80
2023/05/22 13:16:16;;;;;;;;;;;25.60;94.40;;;;;;5082683;28;19924;-79
2023/05/22 13:18:42;;;;;;;;;;;25.60;95.10;;;;;;5097907;28;20018;-80
2023/05/22 13:21:07;;;;;;;;;;;25.40;93.20;;;;;;5099644;28;20010;-80
2023/05/22 13:23:33;;;;;;;;;;;25.60;96.10;;;;;;5068631;28;19928;-80
2023/05/22 13:26:00;;;;;;;;;;;25.80;96.30;;;;;;5080777;28;19951;-80
2023/05/22 13:28:26;;;;;;;;;;;26.20;95.30;;;;;;5087867;28;19928;-79
2023/05/22 13:30:52;;;;;;;;;;;26.50;93.60;;;;;;5111892;28;19959;-79
2023/05/22 13:33:17;;;;;;;;;;;26.60;92.70;;;;;;5082520;28;19924;-79
2023/05/22 13:35:43;;;;;;;;;;;26.40;94.00;;;;;;5114978;28;20066;-73
2023/05/22 13:38:09;;;;;;;;;;;26.20;94.30;;;;;;5099468;28;19963;-73
2023/05/22 13:40:34;;;;;;;;;;;26.00;94.50;;;;;;5097377;28;19932;-72
2023/05/22 13:43:00;;;;;;;;;;;25.90;96.10;;;;;;5098877;28;19924;-73
2023/05/22 13:45:26;;;;;;;;;;;25.90;96.70;;;;;;5098180;28;19935;-73
2023/05/22 13:47:52;;;;;;;;;;;26.00;96.10;;;;;;5081229;28;19928;-73
2023/05/22 13:50:17;;;;;;;;;;;26.20;98.50;;;;;;5098259;28;19924;-73
2023/05/22 13:52:43;;;;;;;;;;;26.30;96.50;;;;;;5080934;28;19928;-73
2023/05/22 13:55:09;;;;;;;;;;;26.30;98.00;;;;;;5092747;28;19971;-72
2023/05/22 13:57:35;;;;;;;;;;;26.20;96.80;;;;;;5085780;28;19928;-72
2023/05/22 14:00:02;;;;;;;;;;;26.10;97.70;;;;;;5087189;28;19924;-73
2023/05/22 14:02:27;;;;;;;;;;;25.80;96.30;;;;;;5101133;28;19927;-72
2023/05/22 14:04:53;;;;;;;;;;;25.50;96.40;;;;;;5084701;28;19927;-73
2023/05/22 14:07:18;;;;;;;;;;;25.20;96.20;;;;;;5101404;28;19935;-72
2023/05/22 14:09:44;;;;;;;;;;;25.00;97.90;;;;;;5100803;28;20436;-73
2023/05/22 14:12:10;;;;;;;;;;;24.90;98.90;;;;;;5101988;28;19931;-73